Time;durP1;ratioP1;P1;durP2;ratioP2;P2;SDS_P1;SDS_P2;PMS_P1;PMS_P2;Temp;Humidity;BMP_temperature;BMP_pressure;BME280_temperature;BME280_humidity;BME280_pressure;Samples;Min_cycle;Max_cycle;Signal;HPM_P1;HPM_P2
2024/03/08 00:02:24;;;;;;;41.13;30.67;;;15.40;66.50;;;;;;4987019;28;20069;-75
2024/03/08 00:04:50;;;;;;;42.10;32.55;;;15.40;66.50;;;;;;4982654;28;20535;-75
2024/03/08 00:07:15;;;;;;;43.10;31.75;;;15.40;66.30;;;;;;4982636;28;20046;-75
2024/03/08 00:09:41;;;;;;;41.10;30.50;;;15.40;66.40;;;;;;4963829;28;20053;-74
2024/03/08 00:12:07;;;;;;;38.35;28.63;;;15.40;67.00;;;;;;4999534;28;20053;-75
2024/03/08 00:14:33;;;;;;;40.65;29.98;;;15.40;66.20;;;;;;4981231;28;20144;-75
2024/03/08 00:16:58;;;;;;;41.95;29.48;;;15.40;66.30;;;;;;4998129;28;20233;-75
2024/03/08 00:19:24;;;;;;;37.70;28.92;;;15.40;66.40;;;;;;4980692;28;20049;-74
2024/03/08 00:21:50;;;;;;;37.03;27.92;;;15.40;66.40;;;;;;4981471;28;20034;-74
2024/03/08 00:24:15;;;;;;;36.92;27.95;;;15.40;66.50;;;;;;4983386;28;20459;-75
2024/03/08 00:26:42;;;;;;;35.05;26.58;;;15.40;66.50;;;;;;4999993;28;20043;-75
2024/03/08 00:29:07;;;;;;;36.03;27.98;;;15.40;66.70;;;;;;4987447;28;20046;-75
2024/03/08 00:31:33;;;;;;;35.40;25.65;;;15.40;66.50;;;;;;4981579;28;20038;-74
2024/03/08 00:33:59;;;;;;;36.42;27.98;;;15.40;66.40;;;;;;4984238;28;20051;-74
2024/03/08 00:36:25;;;;;;;35.58;27.25;;;15.40;66.40;;;;;;4982215;28;20088;-75
2024/03/08 00:38:50;;;;;;;34.28;26.83;;;15.30;66.40;;;;;;4983909;28;20030;-74
2024/03/08 00:41:16;;;;;;;34.28;25.38;;;15.30;66.40;;;;;;5001520;28;20112;-75
2024/03/08 00:43:42;;;;;;;34.83;25.95;;;15.30;66.60;;;;;;4985668;28;20094;-75
2024/03/08 00:46:07;;;;;;;34.13;27.23;;;15.30;66.70;;;;;;4986482;28;20141;-74
2024/03/08 00:48:33;;;;;;;31.25;24.25;;;15.30;66.40;;;;;;4984565;28;20046;-74
2024/03/08 00:50:58;;;;;;;31.58;24.17;;;15.30;66.60;;;;;;4983827;28;20416;-75
2024/03/08 00:53:24;;;;;;;32.28;24.98;;;15.30;66.60;;;;;;4987354;28;20538;-75
2024/03/08 00:55:50;;;;;;;29.55;23.38;;;15.30;66.60;;;;;;4984197;28;20034;-75
2024/03/08 00:58:15;;;;;;;32.42;24.23;;;15.30;66.30;;;;;;4987600;28;20096;-75
2024/03/08 01:00:41;;;;;;;30.70;23.23;;;15.30;66.40;;;;;;4989931;28;20496;-75
2024/03/08 01:03:06;;;;;;;31.73;24.27;;;15.20;66.50;;;;;;4972658;28;20057;-75
2024/03/08 01:05:32;;;;;;;30.70;23.00;;;15.30;66.60;;;;;;4989927;28;20526;-75
2024/03/08 01:07:58;;;;;;;31.20;23.88;;;15.30;66.30;;;;;;4990741;28;20047;-75
2024/03/08 01:10:24;;;;;;;29.08;22.33;;;15.20;66.20;;;;;;4990420;28;20042;-75
2024/03/08 01:12:54;;;;;;;29.80;22.50;;;15.20;66.30;;;;;;4989199;28;20070;-75
2024/03/08 01:15:19;;;;;;;27.65;21.23;;;15.20;66.70;;;;;;4989025;28;20049;-75
2024/03/08 01:17:46;;;;;;;26.70;20.63;;;15.20;66.40;;;;;;4990461;28;20038;-75
2024/03/08 01:20:12;;;;;;;27.00;21.05;;;15.20;66.20;;;;;;4990334;28;20085;-75
2024/03/08 01:22:38;;;;;;;27.42;21.23;;;15.20;66.30;;;;;;4990430;28;20112;-75
2024/03/08 01:25:04;;;;;;;28.75;21.65;;;15.20;66.40;;;;;;4986959;28;20204;-75
2024/03/08 01:27:30;;;;;;;27.27;20.60;;;15.20;66.30;;;;;;4990278;28;20054;-75
2024/03/08 01:29:56;;;;;;;25.02;20.98;;;15.20;66.30;;;;;;4989490;28;20046;-76
2024/03/08 01:32:23;;;;;;;27.60;20.65;;;15.20;66.30;;;;;;4993291;28;20523;-76
2024/03/08 01:34:49;;;;;;;25.40;19.58;;;15.20;66.30;;;;;;4988735;28;20050;-75
2024/03/08 01:37:14;;;;;;;24.10;18.83;;;15.20;66.50;;;;;;4989223;28;20069;-75
2024/03/08 01:39:40;;;;;;;24.75;19.88;;;15.20;66.20;;;;;;4952840;28;20149;-76
2024/03/08 01:42:05;;;;;;;25.05;21.25;;;15.20;66.20;;;;;;4987563;28;20121;-75
2024/03/08 01:44:31;;;;;;;23.77;19.13;;;15.20;66.30;;;;;;5004292;28;20048;-75
2024/03/08 01:46:56;;;;;;;24.83;20.27;;;15.10;66.10;;;;;;4988625;28;20432;-75
2024/03/08 01:49:22;;;;;;;25.30;20.42;;;15.20;66.30;;;;;;5003614;28;20038;-75
2024/03/08 01:51:48;;;;;;;24.10;19.60;;;15.20;66.20;;;;;;4969157;28;20035;-75
2024/03/08 01:54:15;;;;;;;23.02;18.92;;;15.20;66.30;;;;;;4987547;28;20042;-75
2024/03/08 01:56:40;;;;;;;22.17;18.15;;;15.10;66.20;;;;;;4985501;28;20042;-75
2024/03/08 01:59:07;;;;;;;23.30;18.55;;;15.20;66.30;;;;;;4988165;28;20053;-75
2024/03/08 02:01:33;;;;;;;21.98;17.60;;;15.10;66.20;;;;;;4986548;28;20046;-76
2024/03/08 02:03:59;;;;;;;22.98;18.13;;;15.20;66.30;;;;;;4986083;28;20133;-75
2024/03/08 02:06:24;;;;;;;23.02;18.73;;;15.10;66.10;;;;;;4984963;28;20034;-75
2024/03/08 02:08:50;;;;;;;22.50;18.20;;;15.10;66.20;;;;;;4985762;28;20043;-75
2024/03/08 02:11:15;;;;;;;20.17;17.00;;;15.10;66.10;;;;;;4988934;28;20389;-75
2024/03/08 02:13:41;;;;;;;20.80;17.90;;;15.10;66.10;;;;;;4985625;28;20042;-75
2024/03/08 02:16:08;;;;;;;20.38;17.27;;;15.10;66.20;;;;;;4988659;28;20405;-75
2024/03/08 02:18:34;;;;;;;20.30;16.88;;;15.10;66.40;;;;;;4989090;28;20037;-75
2024/03/08 02:21:00;;;;;;;21.30;17.60;;;15.10;66.20;;;;;;4987500;28;20081;-75
2024/03/08 02:23:26;;;;;;;20.02;16.17;;;15.10;67.00;;;;;;4990300;28;20031;-75
2024/03/08 02:25:53;;;;;;;20.05;16.45;;;15.10;66.30;;;;;;4988332;28;20108;-75
2024/03/08 02:28:18;;;;;;;18.35;15.30;;;15.10;66.40;;;;;;5002900;28;20050;-75
2024/03/08 02:30:46;;;;;;;21.00;16.90;;;15.10;66.20;;;;;;4988276;28;20133;-75
2024/03/08 02:33:13;;;;;;;19.33;15.93;;;15.10;66.40;;;;;;4988009;28;20046;-76
2024/03/08 02:35:39;;;;;;;18.52;15.05;;;15.10;66.30;;;;;;4989899;28;20050;-75
2024/03/08 02:38:05;;;;;;;16.80;14.50;;;15.10;66.40;;;;;;4985669;28;20129;-76
2024/03/08 02:40:30;;;;;;;18.92;15.77;;;15.00;66.50;;;;;;4988540;28;20042;-76
2024/03/08 02:42:56;;;;;;;16.63;14.65;;;15.10;66.30;;;;;;4987518;28;20177;-76
2024/03/08 02:45:21;;;;;;;18.27;15.05;;;15.00;66.50;;;;;;4988795;28;20104;-76
2024/03/08 02:47:50;;;;;;;15.80;14.00;;;15.00;66.40;;;;;;4985462;28;20763;-75
2024/03/08 02:50:16;;;;;;;16.40;14.55;;;15.00;66.30;;;;;;4988004;28;20034;-75
2024/03/08 02:52:46;;;;;;;15.73;14.02;;;15.00;66.30;;;;;;5003100;28;20034;-75
2024/03/08 02:55:15;;;;;;;16.33;14.35;;;15.10;66.60;;;;;;4983288;28;20043;-76
2024/03/08 02:57:41;;;;;;;16.83;14.63;;;15.00;66.60;;;;;;4987452;28;20070;-75
2024/03/08 03:00:09;;;;;;;16.60;13.65;;;15.00;66.40;;;;;;4986291;28;20047;-75
2024/03/08 03:02:34;;;;;;;14.57;12.98;;;15.00;66.40;;;;;;4987287;28;20142;-75
2024/03/08 03:05:05;;;;;;;15.90;13.90;;;15.00;66.50;;;;;;5002250;28;20054;-75
2024/03/08 03:07:30;;;;;;;15.90;13.45;;;15.00;66.40;;;;;;4987593;28;20428;-75
2024/03/08 03:09:56;;;;;;;14.77;13.05;;;15.00;66.50;;;;;;4984941;28;20042;-75
2024/03/08 03:12:22;;;;;;;14.93;13.00;;;15.00;66.40;;;;;;4985696;28;20061;-75
2024/03/08 03:14:48;;;;;;;15.98;12.90;;;15.00;66.40;;;;;;4981639;28;20145;-75
2024/03/08 03:17:13;;;;;;;16.33;13.60;;;15.00;66.60;;;;;;4987506;28;20118;-75
2024/03/08 03:19:42;;;;;;;12.88;11.57;;;15.00;66.70;;;;;;4987377;28;20038;-75
2024/03/08 03:22:09;;;;;;;14.50;12.95;;;15.00;66.50;;;;;;4983617;28;20057;-75
2024/03/08 03:24:38;;;;;;;13.65;11.93;;;15.00;66.40;;;;;;5002111;28;20041;-75
2024/03/08 03:27:10;;;;;;;13.90;12.38;;;15.00;66.40;;;;;;4981556;28;21045;-75
2024/03/08 03:29:36;;;;;;;14.15;12.52;;;15.00;66.40;;;;;;4998593;28;20466;-75
2024/03/08 03:32:03;;;;;;;15.15;13.55;;;15.00;66.30;;;;;;4982064;28;20041;-75
2024/03/08 03:34:29;;;;;;;14.52;12.98;;;15.00;66.70;;;;;;4985962;28;20128;-75
2024/03/08 03:36:55;;;;;;;12.95;11.63;;;15.00;66.40;;;;;;4984604;28;20093;-75
2024/03/08 03:39:22;;;;;;;13.18;11.80;;;14.90;66.40;;;;;;4986333;28;20043;-75
2024/03/08 03:41:51;;;;;;;13.07;11.55;;;15.00;66.60;;;;;;4986053;28;20061;-75
2024/03/08 03:44:17;;;;;;;14.48;12.30;;;15.00;66.30;;;;;;4987597;28;20074;-75
2024/03/08 03:46:46;;;;;;;12.65;11.30;;;15.00;66.40;;;;;;4983876;28;20048;-75
2024/03/08 03:49:12;;;;;;;12.57;11.27;;;15.00;66.70;;;;;;4975512;28;20046;-75
2024/03/08 03:51:38;;;;;;;13.50;11.70;;;15.00;66.70;;;;;;5002363;28;20046;-75
2024/03/08 03:54:03;;;;;;;12.70;11.40;;;15.00;66.70;;;;;;4966382;28;20046;-75
2024/03/08 03:56:30;;;;;;;11.80;10.60;;;15.00;66.70;;;;;;4987184;28;20067;-75
2024/03/08 03:58:56;;;;;;;12.70;11.50;;;14.90;66.50;;;;;;4986593;28;20054;-75
2024/03/08 04:01:22;;;;;;;13.63;12.13;;;15.00;66.70;;;;;;4986865;28;20038;-75
2024/03/08 04:03:47;;;;;;;11.93;10.73;;;15.00;66.70;;;;;;4985627;28;20516;-75
2024/03/08 04:06:14;;;;;;;12.68;11.38;;;14.90;66.50;;;;;;4985252;28;20143;-75
2024/03/08 04:08:39;;;;;;;11.93;10.68;;;14.90;66.50;;;;;;4986882;28;20061;-76
2024/03/08 04:11:05;;;;;;;11.48;10.45;;;14.90;66.80;;;;;;4985577;28;20042;-75
2024/03/08 04:13:30;;;;;;;12.15;10.93;;;14.90;66.50;;;;;;4986271;28;20042;-75
2024/03/08 04:15:56;;;;;;;11.07;9.98;;;14.90;66.90;;;;;;5001731;28;20030;-75
2024/03/08 04:18:22;;;;;;;11.50;10.32;;;14.90;66.50;;;;;;4986366;28;20114;-74
2024/03/08 04:20:47;;;;;;;10.27;9.30;;;14.90;66.60;;;;;;5001875;28;20046;-74
2024/03/08 04:23:13;;;;;;;11.18;10.07;;;14.90;66.60;;;;;;4986450;28;20431;-75
2024/03/08 04:25:38;;;;;;;11.07;9.98;;;14.90;66.70;;;;;;4986090;28;20112;-75
2024/03/08 04:28:04;;;;;;;11.27;10.20;;;14.90;66.60;;;;;;4999842;28;20054;-75
2024/03/08 04:30:30;;;;;;;12.98;9.52;;;14.90;66.70;;;;;;4986908;28;20038;-75
2024/03/08 04:32:56;;;;;;;10.68;9.65;;;14.90;66.90;;;;;;5001002;28;20053;-75
2024/03/08 04:35:21;;;;;;;10.30;9.30;;;14.90;66.80;;;;;;4987073;28;20118;-75
2024/03/08 04:37:47;;;;;;;10.15;9.13;;;14.90;66.80;;;;;;4984259;28;20046;-75
2024/03/08 04:40:12;;;;;;;10.10;9.10;;;14.90;66.70;;;;;;4984040;28;20512;-75
2024/03/08 04:42:38;;;;;;;9.60;8.80;;;14.90;66.60;;;;;;4983677;28;20053;-75
2024/03/08 04:45:05;;;;;;;9.80;8.77;;;14.90;66.50;;;;;;4986382;28;20566;-75
2024/03/08 04:47:30;;;;;;;9.80;8.88;;;14.90;66.70;;;;;;4986889;28;20046;-75
2024/03/08 04:49:56;;;;;;;8.73;7.93;;;14.90;66.60;;;;;;4986289;28;20458;-75
2024/03/08 04:52:22;;;;;;;10.18;9.18;;;14.80;66.70;;;;;;4984453;28;20497;-74
2024/03/08 04:54:48;;;;;;;9.95;9.05;;;14.90;66.60;;;;;;4968968;28;20109;-74
2024/03/08 04:57:13;;;;;;;8.88;8.07;;;14.90;66.80;;;;;;4967366;28;20524;-75
2024/03/08 04:59:39;;;;;;;9.48;8.57;;;14.80;66.60;;;;;;5002680;28;20054;-75
2024/03/08 05:02:07;;;;;;;8.80;8.00;;;14.80;66.90;;;;;;4969097;28;20603;-75
2024/03/08 05:04:32;;;;;;;9.52;8.57;;;14.80;66.70;;;;;;4984239;28;20067;-74
2024/03/08 05:07:01;;;;;;;8.52;7.72;;;14.90;66.80;;;;;;4983288;28;20126;-75
2024/03/08 05:09:28;;;;;;;9.60;8.77;;;14.80;66.60;;;;;;4986129;28;20042;-75
2024/03/08 05:11:54;;;;;;;9.13;8.27;;;14.80;66.60;;;;;;4999587;28;20054;-75
2024/03/08 05:14:20;;;;;;;9.10;8.25;;;14.80;66.50;;;;;;4986004;28;20051;-74
2024/03/08 05:16:49;;;;;;;9.07;8.27;;;14.80;66.60;;;;;;4985683;28;20050;-75
2024/03/08 05:19:16;;;;;;;8.65;7.85;;;14.80;66.70;;;;;;4983661;28;20046;-75
2024/03/08 05:21:44;;;;;;;7.78;7.07;;;14.80;66.90;;;;;;4982356;28;20042;-75
2024/03/08 05:24:10;;;;;;;8.15;7.45;;;14.80;66.50;;;;;;4996711;28;20523;-75
2024/03/08 05:26:37;;;;;;;8.50;7.75;;;14.80;66.50;;;;;;4985313;28;20046;-75
2024/03/08 05:29:03;;;;;;;8.57;7.78;;;14.80;66.70;;;;;;4985858;28;20586;-75
2024/03/08 05:31:29;;;;;;;7.95;7.25;;;14.80;66.60;;;;;;4985527;28;20063;-75
2024/03/08 05:33:55;;;;;;;8.88;8.07;;;14.80;66.70;;;;;;4984209;28;20550;-75
2024/03/08 05:36:21;;;;;;;7.50;6.90;;;14.80;66.60;;;;;;4986062;28;20042;-74
2024/03/08 05:38:47;;;;;;;8.10;7.40;;;14.80;66.60;;;;;;4985486;28;20039;-74
2024/03/08 05:41:12;;;;;;;7.97;7.32;;;14.80;66.70;;;;;;5002549;28;20046;-75
2024/03/08 05:43:41;;;;;;;7.45;6.85;;;14.80;66.70;;;;;;4969764;28;20100;-75
2024/03/08 05:46:07;;;;;;;7.50;6.80;;;14.80;66.60;;;;;;4986046;28;20050;-75
2024/03/08 05:48:33;;;;;;;8.23;7.53;;;14.80;66.70;;;;;;4986718;28;20515;-75
2024/03/08 05:50:59;;;;;;;7.47;6.82;;;14.80;66.70;;;;;;4985368;28;20065;-74
2024/03/08 05:53:26;;;;;;;7.22;6.63;;;14.80;66.60;;;;;;5004139;28;20492;-75
2024/03/08 05:55:52;;;;;;;7.00;6.40;;;14.80;66.50;;;;;;4989460;28;20043;-75
2024/03/08 05:58:17;;;;;;;7.30;6.70;;;14.80;66.70;;;;;;4987866;28;20041;-75
2024/03/08 06:00:43;;;;;;;6.47;6.00;;;14.80;66.70;;;;;;4986634;28;20065;-75
2024/03/08 06:03:09;;;;;;;6.78;6.28;;;14.80;66.70;;;;;;4987517;28;20113;-74
2024/03/08 06:05:34;;;;;;;6.38;5.88;;;14.80;66.60;;;;;;4990490;28;20127;-75
2024/03/08 06:08:00;;;;;;;7.25;6.65;;;14.80;66.60;;;;;;4988364;28;20174;-75
2024/03/08 06:10:26;;;;;;;6.60;6.10;;;14.80;66.70;;;;;;4989440;28;20711;-75
2024/03/08 06:12:51;;;;;;;7.15;6.60;;;14.80;66.80;;;;;;4986547;28;21578;-75
2024/03/08 06:15:20;;;;;;;6.65;6.10;;;14.70;66.60;;;;;;4989129;28;20042;-75
2024/03/08 06:17:46;;;;;;;6.70;6.20;;;14.70;66.70;;;;;;4987142;28;20050;-75
2024/03/08 06:20:12;;;;;;;6.03;5.63;;;14.80;66.70;;;;;;4987888;28;20046;-75
2024/03/08 06:22:41;;;;;;;6.28;5.80;;;14.80;66.70;;;;;;4985214;28;20188;-75
2024/03/08 06:25:15;;;;;;;7.22;6.72;;;14.70;66.60;;;;;;4984617;28;20054;-74
2024/03/08 06:27:42;;;;;;;6.63;6.13;;;14.80;66.70;;;;;;4988173;28;20042;-75
2024/03/08 06:30:09;;;;;;;6.80;6.35;;;14.80;66.60;;;;;;4988133;28;20130;-75
2024/03/08 06:32:35;;;;;;;6.85;6.35;;;14.70;66.70;;;;;;4988183;28;20054;-74
2024/03/08 06:35:04;;;;;;;7.00;6.47;;;14.70;66.70;;;;;;4987568;28;20038;-75
2024/03/08 06:37:31;;;;;;;5.75;5.35;;;14.70;66.70;;;;;;4985280;28;20452;-76
2024/03/08 06:39:56;;;;;;;6.03;5.53;;;14.70;66.60;;;;;;4985963;28;20046;-75
2024/03/08 06:42:22;;;;;;;6.30;5.80;;;14.70;66.70;;;;;;4987033;28;20427;-75
2024/03/08 06:44:50;;;;;;;5.68;5.28;;;14.70;66.70;;;;;;4989268;28;20038;-75
2024/03/08 06:47:16;;;;;;;5.93;5.53;;;14.70;66.70;;;;;;4988333;28;20050;-75
2024/03/08 06:49:45;;;;;;;6.53;6.03;;;14.70;66.70;;;;;;4986134;28;20035;-76
2024/03/08 06:52:10;;;;;;;6.78;6.18;;;14.70;66.60;;;;;;4983755;28;20097;-75
2024/03/08 06:54:36;;;;;;;5.75;5.35;;;14.70;66.60;;;;;;4988478;28;20047;-75
2024/03/08 06:57:03;;;;;;;5.65;5.25;;;14.80;66.60;;;;;;4986558;28;20042;-74
2024/03/08 06:59:29;;;;;;;5.43;5.05;;;14.70;66.60;;;;;;5004102;28;20030;-75
2024/03/08 07:01:55;;;;;;;5.75;5.35;;;14.70;66.60;;;;;;4988644;28;20407;-79
2024/03/08 07:04:21;;;;;;;5.97;5.47;;;14.70;66.70;;;;;;4985365;28;20050;-80
2024/03/08 07:06:49;;;;;;;5.63;5.22;;;14.70;66.70;;;;;;4984965;28;20038;-81
2024/03/08 07:09:16;;;;;;;5.88;5.38;;;14.70;66.60;;;;;;4985268;28;20081;-79
2024/03/08 07:11:42;;;;;;;5.50;5.10;;;14.70;66.70;;;;;;4636140;28;10000001;-79
2024/03/08 07:14:08;;;;;;;5.10;4.80;;;14.80;66.70;;;;;;4982492;28;20077;-79
2024/03/08 07:16:35;;;;;;;4.97;4.68;;;14.80;67.00;;;;;;4984977;28;20043;-79
2024/03/08 07:19:01;;;;;;;5.60;5.20;;;14.80;66.80;;;;;;4997882;28;20415;-79
2024/03/08 07:21:27;;;;;;;5.38;4.97;;;14.80;67.70;;;;;;4983788;28;20042;-80
2024/03/08 07:26:27;;;;;;;5.85;5.45;;;14.80;67.20;;;;;;4983654;28;20070;-79
2024/03/08 07:28:54;;;;;;;4.93;4.60;;;14.80;67.20;;;;;;4982601;28;20042;-80
2024/03/08 07:31:34;;;;;;;5.57;5.18;;;14.80;67.20;;;;;;4982304;28;20047;-80
2024/03/08 07:34:00;;;;;;;5.13;4.82;;;14.80;67.20;;;;;;4983094;28;20070;-78
2024/03/08 07:36:25;;;;;;;5.40;5.10;;;14.80;67.30;;;;;;4964373;28;20074;-79
2024/03/08 07:38:51;;;;;;;5.22;4.72;;;14.80;67.20;;;;;;4984829;28;20506;-79
2024/03/08 07:41:17;;;;;;;4.47;4.18;;;14.80;67.30;;;;;;4984397;28;20046;-79
2024/03/08 07:43:42;;;;;;;4.88;4.57;;;14.80;67.30;;;;;;4983680;28;20038;-80
2024/03/08 07:46:10;;;;;;;5.03;4.65;;;14.80;67.60;;;;;;4980815;28;20053;-80
2024/03/08 07:48:36;;;;;;;5.10;4.80;;;14.80;67.50;;;;;;4979777;28;20042;-79
2024/03/08 07:51:03;;;;;;;5.10;4.70;;;14.90;67.40;;;;;;4977484;28;20624;-79
2024/03/08 07:53:29;;;;;;;4.75;4.45;;;14.80;67.40;;;;;;4981038;28;20602;-79
2024/03/08 07:55:55;;;;;;;4.90;4.60;;;14.80;67.50;;;;;;4966729;28;20045;-81
2024/03/08 07:58:20;;;;;;;4.55;4.25;;;14.80;67.30;;;;;;4979152;28;20051;-80
2024/03/08 08:00:46;;;;;;;4.65;4.35;;;14.90;67.40;;;;;;4981071;28;20178;-80
2024/03/08 08:03:12;;;;;;;4.70;4.45;;;14.80;68.10;;;;;;4981359;28;20113;-80
2024/03/08 08:05:38;;;;;;;4.80;4.50;;;14.80;67.50;;;;;;4999717;28;20101;-80
2024/03/08 08:08:06;;;;;;;4.85;4.55;;;14.90;67.70;;;;;;4984632;28;20053;-79
2024/03/08 08:10:32;;;;;;;4.88;4.57;;;14.90;67.50;;;;;;4981446;28;20100;-80
2024/03/08 08:12:58;;;;;;;5.35;4.95;;;14.90;67.60;;;;;;4980253;28;20092;-79
2024/03/08 08:15:24;;;;;;;4.95;4.65;;;14.90;68.00;;;;;;4996603;28;20054;-81
2024/03/08 08:17:49;;;;;;;5.03;4.57;;;14.90;67.70;;;;;;4981158;28;20046;-79
2024/03/08 08:20:15;;;;;;;4.93;4.63;;;14.90;67.80;;;;;;4982076;28;20041;-81
2024/03/08 08:22:41;;;;;;;4.50;4.20;;;15.00;67.50;;;;;;4982364;28;20046;-80
2024/03/08 08:25:08;;;;;;;4.47;4.18;;;15.10;67.00;;;;;;4983947;28;20049;-79
2024/03/08 08:27:33;;;;;;;4.57;4.28;;;15.10;67.50;;;;;;4983200;28;20045;-79
2024/03/08 08:30:00;;;;;;;11.18;4.70;;;15.10;68.00;;;;;;4982693;28;20042;-80
2024/03/08 08:32:26;;;;;;;6.82;4.70;;;15.00;67.60;;;;;;4995428;28;20050;-79
2024/03/08 08:34:51;;;;;;;7.65;4.30;;;15.00;67.60;;;;;;4981975;28;20042;-80
2024/03/08 08:37:17;;;;;;;4.75;4.28;;;15.00;67.70;;;;;;4981642;28;20097;-79
2024/03/08 08:39:43;;;;;;;4.72;4.35;;;15.00;67.90;;;;;;4980506;28;20049;-79
2024/03/08 08:42:09;;;;;;;4.32;3.92;;;15.00;67.70;;;;;;4982552;28;20142;-80
2024/03/08 08:44:35;;;;;;;5.00;4.50;;;14.90;67.80;;;;;;4984279;28;20049;-81
2024/03/08 08:47:01;;;;;;;4.97;4.05;;;14.90;67.80;;;;;;4998325;28;20031;-81
2024/03/08 08:49:27;;;;;;;3.78;3.50;;;15.00;68.10;;;;;;4979445;28;20054;-81
2024/03/08 08:51:52;;;;;;;3.97;3.72;;;15.00;67.80;;;;;;4982007;28;20054;-81
2024/03/08 08:54:18;;;;;;;3.63;3.40;;;15.00;68.00;;;;;;4979195;28;20050;-81
2024/03/08 08:56:44;;;;;;;5.72;3.67;;;15.00;67.80;;;;;;4997091;28;20083;-80
2024/03/08 08:59:13;;;;;;;3.90;3.60;;;15.00;68.00;;;;;;4978090;28;20034;-80
2024/03/08 09:01:39;;;;;;;4.07;3.78;;;15.00;67.80;;;;;;4995355;28;20178;-81
2024/03/08 09:04:05;;;;;;;4.07;3.83;;;15.00;67.80;;;;;;4964207;28;20545;-81
2024/03/08 09:06:31;;;;;;;4.07;3.65;;;15.00;67.80;;;;;;4966065;28;20050;-81
2024/03/08 09:08:57;;;;;;;5.05;3.55;;;15.00;68.00;;;;;;4983440;28;20050;-81
2024/03/08 09:11:25;;;;;;;4.47;4.18;;;15.00;67.70;;;;;;4981210;28;20105;-81
2024/03/08 09:13:50;;;;;;;5.10;3.60;;;15.00;68.10;;;;;;4982326;28;20068;-81
2024/03/08 09:16:16;;;;;;;3.60;3.30;;;15.00;67.80;;;;;;4982726;28;20703;-81
2024/03/08 09:18:41;;;;;;;4.70;3.45;;;15.00;67.60;;;;;;4984385;28;20104;-82
2024/03/08 09:21:09;;;;;;;3.28;3.08;;;15.00;67.60;;;;;;4988504;28;20046;-81
2024/03/08 09:23:38;;;;;;;3.90;3.50;;;15.10;67.70;;;;;;4988247;28;20034;-82
2024/03/08 09:26:04;;;;;;;3.33;3.13;;;15.20;67.00;;;;;;4986259;28;20583;-81
2024/03/08 09:28:30;;;;;;;4.28;3.65;;;15.20;67.50;;;;;;4986707;28;20062;-80
2024/03/08 09:30:55;;;;;;;3.60;3.30;;;15.20;67.50;;;;;;4987322;28;20035;-80
2024/03/08 09:33:21;;;;;;;3.38;3.17;;;15.20;67.70;;;;;;4987298;28;20057;-81
2024/03/08 09:35:47;;;;;;;3.30;3.10;;;15.20;67.50;;;;;;4970043;28;20064;-81
2024/03/08 09:38:14;;;;;;;3.45;3.25;;;15.20;67.50;;;;;;4999631;28;20049;-79
2024/03/08 09:40:43;;;;;;;3.15;2.95;;;15.20;67.40;;;;;;4987580;28;20566;-81
2024/03/08 09:43:11;;;;;;;3.58;3.28;;;15.20;67.40;;;;;;4986591;28;20097;-82
2024/03/08 09:45:40;;;;;;;3.28;3.08;;;15.20;67.10;;;;;;4991856;28;20165;-81
2024/03/08 09:48:11;;;;;;;3.25;3.05;;;15.30;67.90;;;;;;4988477;28;20053;-81
2024/03/08 09:50:38;;;;;;;4.50;3.28;;;15.30;67.10;;;;;;4987281;28;20046;-80
2024/03/08 09:53:03;;;;;;;3.30;3.00;;;15.30;66.80;;;;;;4972298;28;20034;-79
2024/03/08 09:55:33;;;;;;;3.30;3.10;;;15.30;66.80;;;;;;4987423;28;20112;-82
2024/03/08 10:00:57;;;;;;;3.20;3.00;;;15.30;67.10;;;;;;4933331;29;20568;-81
2024/03/08 10:03:22;;;;;;;3.03;2.83;;;15.30;67.50;;;;;;4947977;28;20043;-81
2024/03/08 10:05:48;;;;;;;3.00;2.80;;;15.30;67.40;;;;;;4948601;28;20039;-81
2024/03/08 10:08:14;;;;;;;3.50;3.20;;;15.30;67.20;;;;;;4947658;28;20122;-82
2024/03/08 10:10:39;;;;;;;2.70;2.60;;;15.30;67.20;;;;;;4948188;28;20047;-82
2024/03/08 10:13:08;;;;;;;3.25;2.78;;;15.40;67.30;;;;;;4933961;28;20094;-81
2024/03/08 10:15:33;;;;;;;2.85;2.70;;;15.40;68.00;;;;;;4932275;29;20043;-81
2024/03/08 10:17:59;;;;;;;2.78;2.58;;;15.30;67.30;;;;;;4932212;28;20145;-81
2024/03/08 10:20:26;;;;;;;2.97;2.78;;;15.30;67.20;;;;;;4932491;29;20050;-84
2024/03/08 10:22:53;;;;;;;3.00;2.80;;;15.30;67.10;;;;;;4950489;28;20194;-87
2024/03/08 10:25:19;;;;;;;2.72;2.55;;;15.40;66.90;;;;;;4591976;29;10000018;-80
2024/03/08 10:27:44;;;;;;;2.95;2.75;;;15.40;66.80;;;;;;4929119;28;20047;-80
2024/03/08 10:30:15;;;;;;;4.47;2.90;;;15.40;66.60;;;;;;4928478;28;20048;-79
2024/03/08 10:32:41;;;;;;;2.83;2.63;;;15.50;66.40;;;;;;4943201;28;20141;-79
2024/03/08 10:35:09;;;;;;;2.75;2.63;;;15.50;66.40;;;;;;4947518;28;20078;-79
2024/03/08 10:38:03;;;;;;;4.45;2.88;;;15.50;66.40;;;;;;4961929;28;20070;-79
2024/03/08 10:40:28;;;;;;;2.95;2.50;;;15.50;66.30;;;;;;4984922;28;20038;-79
2024/03/08 10:42:54;;;;;;;2.90;2.70;;;15.50;66.20;;;;;;4952420;28;20037;-79
2024/03/08 10:45:36;;;;;;;2.67;2.58;;;15.50;66.40;;;;;;4990351;28;20060;-80
2024/03/08 10:48:33;;;;;;;2.58;2.38;;;15.50;66.60;;;;;;4990488;28;20043;-80
2024/03/08 10:51:05;;;;;;;3.33;2.78;;;15.60;66.60;;;;;;4989546;28;20604;-78
2024/03/08 10:53:30;;;;;;;2.92;2.72;;;15.50;66.70;;;;;;4992315;28;20077;-79
2024/03/08 10:55:57;;;;;;;2.92;2.78;;;15.50;66.30;;;;;;4987236;28;20046;-79
2024/03/08 10:58:27;;;;;;;4.47;2.15;;;15.60;66.10;;;;;;4986008;28;20037;-78
2024/03/08 11:00:53;;;;;;;2.80;2.60;;;15.50;66.20;;;;;;4971510;28;20508;-79
2024/03/08 11:03:45;;;;;;;2.80;2.60;;;15.60;66.30;;;;;;4982662;28;20125;-79
2024/03/08 11:06:30;;;;;;;2.90;2.70;;;15.60;66.30;;;;;;4988163;28;20500;-79
2024/03/08 11:08:57;;;;;;;3.92;2.28;;;15.60;66.30;;;;;;4990055;28;20419;-78
2024/03/08 11:11:34;;;;;;;2.95;2.35;;;15.60;66.20;;;;;;4989522;28;20488;-78
2024/03/08 11:14:01;;;;;;;2.47;2.28;;;15.60;66.10;;;;;;4988824;28;20045;-78
2024/03/08 11:16:31;;;;;;;2.30;2.10;;;15.60;66.20;;;;;;4987556;28;20038;-78
2024/03/08 11:19:04;;;;;;;2.15;2.05;;;15.60;66.30;;;;;;4989567;28;20446;-79
2024/03/08 11:21:39;;;;;;;2.42;2.28;;;15.60;66.40;;;;;;4988908;28;23162;-79
2024/03/08 11:24:13;;;;;;;2.22;2.13;;;15.50;66.40;;;;;;4987443;28;20042;-79
2024/03/08 11:26:39;;;;;;;2.70;2.50;;;15.50;66.40;;;;;;4988874;28;20046;-78
2024/03/08 11:29:35;;;;;;;2.05;1.85;;;15.60;66.10;;;;;;4991185;28;20042;-79
2024/03/08 11:32:28;;;;;;;2.30;2.10;;;15.50;66.10;;;;;;4987732;28;20041;-79
2024/03/08 11:34:53;;;;;;;2.05;1.95;;;15.60;66.10;;;;;;4999812;28;20046;-78
2024/03/08 11:37:20;;;;;;;2.20;2.10;;;15.60;66.20;;;;;;4985287;28;20037;-78
2024/03/08 11:39:58;;;;;;;1.80;1.70;;;15.60;66.10;;;;;;4985409;28;20050;-79
2024/03/08 11:42:26;;;;;;;2.03;1.92;;;15.60;66.00;;;;;;4984787;28;20055;-79
2024/03/08 11:44:52;;;;;;;2.10;2.00;;;15.50;66.00;;;;;;4990011;28;20049;-79
2024/03/08 11:47:17;;;;;;;2.40;1.95;;;15.60;66.10;;;;;;4992390;28;20042;-79
2024/03/08 11:49:44;;;;;;;2.63;2.10;;;15.50;66.20;;;;;;4980937;28;20038;-78
2024/03/08 11:52:17;;;;;;;2.13;2.03;;;15.50;66.30;;;;;;4986246;28;20107;-79
2024/03/08 11:54:47;;;;;;;2.03;1.92;;;15.50;66.10;;;;;;4970941;28;20038;-78
2024/03/08 11:57:13;;;;;;;1.73;1.63;;;15.50;66.30;;;;;;4988630;28;20053;-79
2024/03/08 11:59:38;;;;;;;2.10;2.00;;;15.50;66.30;;;;;;4989463;28;20129;-79
2024/03/08 12:02:05;;;;;;;2.10;2.00;;;15.50;66.30;;;;;;5005481;28;20038;-79
2024/03/08 12:04:31;;;;;;;1.80;1.70;;;15.50;66.20;;;;;;4985407;28;20050;-79
2024/03/08 12:07:01;;;;;;;1.65;1.55;;;15.40;66.40;;;;;;4987311;28;20048;-79
2024/03/08 12:09:27;;;;;;;2.10;1.90;;;15.40;66.30;;;;;;4990885;28;20049;-79
2024/03/08 12:11:52;;;;;;;2.42;2.08;;;15.40;66.20;;;;;;4989493;28;20089;-79
2024/03/08 12:14:18;;;;;;;2.25;2.15;;;15.40;66.40;;;;;;4985021;28;20507;-79
2024/03/08 12:16:44;;;;;;;2.00;1.90;;;15.50;66.30;;;;;;4986983;28;20038;-79
2024/03/08 12:19:10;;;;;;;2.00;1.90;;;15.50;66.00;;;;;;4990032;28;20030;-79
2024/03/08 12:21:35;;;;;;;1.70;1.60;;;15.50;65.90;;;;;;4969207;28;20227;-78
2024/03/08 12:24:08;;;;;;;1.88;1.70;;;15.50;66.00;;;;;;5003497;28;20045;-79
2024/03/08 12:26:36;;;;;;;1.80;1.70;;;15.50;66.10;;;;;;4988557;28;20108;-78
2024/03/08 12:29:27;;;;;;;1.95;1.42;;;15.50;66.00;;;;;;4985762;28;20097;-79
2024/03/08 12:31:54;;;;;;;1.80;1.70;;;15.50;66.10;;;;;;4985798;28;20054;-79
2024/03/08 12:34:20;;;;;;;1.40;1.40;;;15.50;66.00;;;;;;4984433;28;20121;-79
2024/03/08 12:36:50;;;;;;;2.45;1.90;;;15.50;65.90;;;;;;4987495;28;20121;-79
2024/03/08 12:39:17;;;;;;;1.75;1.65;;;15.50;66.10;;;;;;4985057;28;20070;-79
2024/03/08 12:41:43;;;;;;;1.80;1.70;;;15.50;66.20;;;;;;4991346;28;20061;-79
2024/03/08 12:44:11;;;;;;;1.80;1.70;;;15.50;66.10;;;;;;4988846;28;20042;-79
2024/03/08 12:46:40;;;;;;;1.90;1.80;;;15.60;65.90;;;;;;4969133;28;20053;-78